This is the latest recevied weather packets stored in our database for station/object ED4YAZ-13. If no packets are shown the sender has not sent any weather packets the latest 1 day(s).
| Time | Temp. | Humidity | Pressure | Rain* | Wind** | Luminosity | Snow |
|---|---|---|---|---|---|---|---|
| 1778085162 | 39.44° C | 15% | 1000.7 hPa | - | - | - | - |
| 1778082753 | 23.89° C | 27% | 1006.4 hPa | - | - | - | - |
| 1778080326 | 19.44° C | 32% | 1008.4 hPa | - | - | - | - |
| 1778079726 | 18.89° C | 33% | 1008.8 hPa | - | - | - | - |
| 1778079126 | 18.89° C | 33% | 1009 hPa | - | - | - | - |
| 1778078526 | 18.33° C | 33% | 1009.2 hPa | - | - | - | - |
| 1778077926 | 19.44° C | 31% | 1008.9 hPa | - | - | - | - |
| 1778077319 | 21.11° C | 31% | 1008.4 hPa | - | - | - | - |
| 1778076719 | 21.11° C | 31% | 1008.3 hPa | - | - | - | - |
| 1778076119 | 21.67° C | 32% | 1008.3 hPa | - | - | - | - |
| 1778075519 | 20.56° C | 31% | 1008.7 hPa | - | - | - | - |
| 1778074436 | 20.56° C | 32% | 1008.9 hPa | - | - | - | - |
| 1778073836 | 19.44° C | 34% | 1009.4 hPa | - | - | - | - |
| 1778070208 | 19.44° C | 37% | 1009.9 hPa | - | - | - | - |
| 1778069608 | 18.33° C | 38% | 1010.5 hPa | - | - | - | - |
| 1778068994 | 16.67° C | 40% | 1011.3 hPa | - | - | - | - |
| 1778068415 | 17.22° C | 39% | 1011.1 hPa | - | - | - | - |
| 1778067822 | 17.78° C | 38% | 1011.1 hPa | - | - | - | - |
| 1778067770 | 17.78° C | 38% | 1011.1 hPa | - | - | - | - |
| 1778065971 | 16.67° C | 42% | 1011.6 hPa | - | - | - | - |
| 1778065355 | 15° C | 43% | 1012.3 hPa | - | - | - | - |
| 1778064755 | 15° C | 43% | 1012.4 hPa | - | - | - | - |
| 1778064155 | 16.11° C | 39% | 1011.9 hPa | - | - | - | - |
| 1778063555 | 18.33° C | 39% | 1011 hPa | - | - | - | - |
| 1778062955 | 18.89° C | 38% | 1010.8 hPa | - | - | - | - |
* Rain since midnight (hover to see other rain measurements)
** Current wind speed in m/s (hover to see current wind gust speed)